Juno — WDB7715 — position and weather

sailwx.info

Track history (hours):
 
Tides and Currents Weather Stations Pressure Air Temp Water Temp Dewpoint Dewpoint Depression Visibility Wind Speed Wind Dir Waves Ship Positions

Juno

Owner: All Alaskan Rondys, LLC, Seattle, WA. More information available from US FCC via Universal Licensing System and Coast Guard Vessel Documentation Center.

Last reported at 2017-Oct-07 23:56 UTC. Time now 2017-Nov-18 16:04 UTC.
Position N 46°54' W 124°06'.
Warning: this ship's position is 41 days out of date.

; draft 4 m.

Type: Fishing. MMSI: 366946960.

Date/timePositionNaut miles runAvg speedWind from/ knotsBaromVisibWave heightAir tempDewpointWater temp
2017-Oct-07 23:56N 46°54' W 124°06'0 0.0
2017-Oct-07 23:30N 46°54' W 124°06'0 0.1
2017-Oct-07 23:00N 46°54' W 124°06'0 0.1
2017-Oct-07 22:31N 46°54' W 124°06'0 0.0
2017-Oct-07 22:00N 46°54' W 124°06'0 0.0
2017-Oct-07 21:31N 46°54' W 124°06'0 0.0
2017-Oct-07 21:00N 46°54' W 124°06'0 0.1
2017-Oct-07 20:30N 46°54' W 124°06'0 0.0
2017-Oct-07 20:00N 46°54' W 124°06'0 0.0
2017-Oct-07 19:30N 46°54' W 124°06'0 0.1
2017-Oct-07 18:58N 46°54' W 124°06'0 0.0
2017-Oct-07 18:26N 46°54' W 124°06'0 0.0
2017-Oct-07 17:57N 46°54' W 124°06'0 0.0
2017-Oct-07 17:29N 46°54' W 124°06'5 4.6
2017-Oct-07 16:21N 46°55' W 124°14'2 5.7
2017-Oct-07 15:58N 46°57' W 124°16'3 7.0
2017-Oct-07 15:30N 46°60' W 124°18'4 7.3
2017-Oct-07 15:00N 47°03' W 124°20'4 7.2
2017-Oct-07 14:30N 47°06' W 124°22'4 7.2
2017-Oct-07 13:55N 47°10' W 124°24'80 6.9
2017-Oct-07 02:19N 48°23' W 125°12'1 0.7
2017-Oct-07 01:04N 48°24' W 125°12'0 1.2
2017-Oct-07 00:54N 48°24' W 125°12'1 1.1
2017-Oct-07 00:17N 48°24' W 125°13'0 0.6
2017-Oct-06 23:51N 48°24' W 125°14'1 3.9
2017-Oct-06 23:29N 48°25' W 125°12'2 3.5
2017-Oct-06 23:00N 48°26' W 125°10'1 1.2
2017-Oct-06 22:19N 48°27' W 125°09'1 1.7
2017-Oct-06 22:00N 48°26' W 125°09'2 3.8
2017-Oct-06 21:26N 48°25' W 125°12'2 3.4
2017-Oct-06 20:59N 48°26' W 125°10'2 2.9
2017-Oct-06 20:22N 48°24' W 125°12'2 3.7
2017-Oct-06 19:56N 48°23' W 125°13'1 1.9
2017-Oct-06 19:27N 48°22' W 125°14'1 1.0
2017-Oct-06 18:54N 48°22' W 125°15'1 3.8
2017-Oct-06 18:30N 48°23' W 125°13'2 3.0
2017-Oct-06 17:56N 48°23' W 125°10'0 0.8
2017-Oct-06 17:27N 48°23' W 125°10'0 0.4
2017-Oct-06 16:55N 48°23' W 125°10'1 2.7
2017-Oct-06 16:22N 48°21' W 125°09'15 3.8
2017-Oct-06 12:23N 48°07' W 125°02'4 7.1
2017-Oct-06 11:50N 48°04' W 124°59'2 7.2
2017-Oct-06 11:30N 48°02' W 124°58'4 7.4
2017-Oct-06 11:00N 47°58' W 124°56'4 7.3
2017-Oct-06 10:30N 47°55' W 124°53'4 7.2
2017-Oct-06 10:00N 47°51' W 124°52'4 7.4
2017-Oct-06 09:30N 47°48' W 124°49'4 7.6
2017-Oct-06 08:58N 47°44' W 124°47'3 7.4
2017-Oct-06 08:30N 47°41' W 124°45'4 7.1
2017-Oct-06 08:00N 47°38' W 124°42'4 7.3
2017-Oct-06 07:30N 47°35' W 124°40'4 7.2
2017-Oct-06 07:00N 47°31' W 124°38'4 7.3
2017-Oct-06 06:26N 47°28' W 124°36'3 6.9
2017-Oct-06 06:00N 47°25' W 124°34'4 7.1
2017-Oct-06 05:30N 47°22' W 124°32'4 7.2
2017-Oct-06 05:00N 47°18' W 124°30'4 7.5
2017-Oct-06 04:30N 47°15' W 124°27'4 7.8
2017-Oct-06 04:00N 47°11' W 124°25'4 7.7
2017-Oct-06 03:30N 47°08' W 124°23'4 7.5
2017-Oct-06 03:00N 47°04' W 124°21'4 7.2
2017-Oct-06 02:30N 47°01' W 124°19'3 7.0
2017-Oct-06 02:00N 46°58' W 124°17'3 7.0
2017-Oct-06 01:30N 46°55' W 124°14'5 9.1
2017-Oct-06 01:00N 46°55' W 124°07'1 1.6
2017-Oct-06 00:30N 46°54' W 124°06'0 0.0
2017-Oct-06 00:00N 46°54' W 124°06'0 0.1
2017-Oct-05 23:30N 46°54' W 124°06'0 0.1
2017-Oct-05 23:00N 46°54' W 124°06'0 0.0
2017-Oct-05 22:30N 46°54' W 124°06'0 0.0
2017-Oct-05 22:00N 46°54' W 124°06'0 0.0
2017-Oct-05 21:30N 46°54' W 124°06'0 0.0
2017-Oct-05 21:00N 46°54' W 124°06'0 0.0
2017-Oct-05 20:30N 46°54' W 124°06'0 0.0
2017-Oct-05 20:00N 46°54' W 124°06'0 0.0
2017-Oct-05 19:30N 46°54' W 124°06'0 0.0
2017-Oct-05 19:00N 46°54' W 124°06'0 0.0
2017-Oct-05 18:29N 46°54' W 124°06'0 0.0
2017-Oct-05 18:00N 46°54' W 124°06'0 0.0
2017-Oct-05 17:30N 46°54' W 124°06'0 0.0
2017-Oct-05 17:00N 46°54' W 124°06'0 0.0
2017-Oct-05 15:30N 46°54' W 124°06'0 0.0
2017-Oct-05 15:00N 46°54' W 124°06'0 0.0
2017-Oct-05 14:30N 46°54' W 124°06'0 0.0
2017-Oct-05 14:00N 46°54' W 124°06'0 0.0
2017-Oct-05 13:28N 46°54' W 124°06'0 0.0
2017-Oct-05 13:00N 46°54' W 124°06'0 0.0
2017-Oct-05 12:30N 46°54' W 124°06'0 0.0
2017-Oct-05 11:51N 46°54' W 124°06'0 0.0
2017-Oct-05 11:30N 46°54' W 124°06'0 0.0
2017-Oct-05 10:51N 46°54' W 124°06'0 0.0
2017-Oct-05 10:30N 46°54' W 124°06'0 0.0
2017-Oct-05 10:00N 46°54' W 124°06'0 0.0
2017-Oct-05 09:30N 46°54' W 124°06'0 0.0
2017-Oct-05 09:00N 46°54' W 124°06'0 0.0
2017-Oct-05 08:30N 46°54' W 124°06'0 0.0
2017-Oct-05 07:48N 46°54' W 124°06'0 0.0
2017-Oct-05 07:30N 46°54' W 124°06'0 0.0
2017-Oct-05 07:00N 46°54' W 124°06'0 0.0
2017-Oct-05 06:30N 46°54' W 124°06'0 0.0
2017-Oct-05 05:02N 46°54' W 124°06'0 0.0
2017-Oct-05 04:49N 46°54' W 124°06'0 0.0
2017-Oct-05 04:30N 46°54' W 124°06'0 0.0
2017-Oct-05 04:00N 46°54' W 124°06'0 0.0
2017-Oct-05 03:30N 46°54' W 124°06'0 0.0
2017-Oct-05 03:00N 46°54' W 124°06'0 0.0
2017-Oct-05 02:30N 46°54' W 124°06'0 0.0
2017-Oct-05 02:00N 46°54' W 124°06'0 0.0
2017-Oct-05 01:30N 46°54' W 124°06'0 0.0
2017-Oct-05 01:00N 46°54' W 124°06'0 0.0
2017-Oct-05 00:30N 46°54' W 124°06'0 0.0
2017-Oct-05 00:00N 46°54' W 124°06'0 0.0
2017-Oct-04 23:30N 46°54' W 124°06'0 0.0
2017-Oct-04 23:00N 46°54' W 124°06'0 0.1
2017-Oct-04 22:30N 46°54' W 124°06'0 0.0
2017-Oct-04 22:00N 46°54' W 124°06'0 0.0
2017-Oct-04 21:30N 46°54' W 124°06'0 0.0
2017-Oct-04 21:00N 46°54' W 124°06'0 0.0
2017-Oct-04 20:30N 46°54' W 124°06'0 0.0
2017-Oct-04 20:00N 46°54' W 124°06'0 0.0
2017-Oct-04 19:30N 46°54' W 124°06'0 0.0
2017-Oct-04 19:00N 46°54' W 124°06'0 0.0
2017-Oct-04 18:30N 46°54' W 124°06'0 0.0
2017-Oct-04 18:00N 46°54' W 124°06'0 0.0
2017-Oct-04 17:30N 46°54' W 124°06'0 0.0
2017-Oct-04 17:00N 46°54' W 124°06'0 0.1
2017-Oct-04 16:30N 46°54' W 124°06'0 0.1
2017-Oct-04 16:00N 46°54' W 124°06'3 5.5
2017-Oct-04 15:30N 46°55' W 124°10'3 6.5
2017-Oct-04 15:00N 46°56' W 124°15'4 7.5
2017-Oct-04 14:30N 46°59' W 124°18'4 7.8
2017-Oct-04 14:00N 47°03' W 124°20'4 7.9
2017-Oct-04 13:30N 47°06' W 124°22'4 7.9
2017-Oct-04 13:00N 47°10' W 124°24'4 7.8
2017-Oct-04 12:30N 47°14' W 124°27'4 7.9
2017-Oct-04 11:57N 47°18' W 124°30'3 7.6
2017-Oct-04 11:31N 47°21' W 124°32'32 1.5
2017-Oct-03 13:39N 47°50' W 124°52'38 8.2
2017-Oct-03 09:03N 47°16' W 124°29'1 7.9
2017-Oct-03 08:57N 47°15' W 124°28'4 7.8
2017-Oct-03 08:30N 47°12' W 124°26'4 7.9
2017-Oct-03 08:00N 47°08' W 124°24'4 7.7
2017-Oct-03 07:30N 47°05' W 124°21'4 7.6
2017-Oct-03 07:00N 47°01' W 124°19'4 7.3
2017-Oct-03 06:31N 46°58' W 124°17'3 6.7
2017-Oct-03 06:00N 46°55' W 124°14'3 6.9
2017-Oct-03 05:30N 46°55' W 124°09'2 0.2
2017-Oct-02 19:19N 46°54' W 124°06'0 0.0
2017-Oct-02 19:00N 46°54' W 124°06'0 0.0
2017-Oct-02 18:30N 46°54' W 124°06'0 0.0
2017-Oct-02 17:38N 46°54' W 124°06'0 0.0
2017-Oct-02 17:20N 46°54' W 124°06'0 0.0
2017-Oct-02 17:00N 46°54' W 124°06'0 0.0
2017-Oct-02 11:51N 46°54' W 124°06'0 0.0
2017-Oct-02 11:30N 46°54' W 124°06'0 0.0
2017-Oct-02 10:58N 46°54' W 124°06'1 0.1
2017-Oct-01 19:25N 46°55' W 124°08'1 1.9
2017-Oct-01 18:58N 46°55' W 124°09'3 7.2
2017-Oct-01 18:30N 46°55' W 124°14'4 7.9
2017-Oct-01 18:00N 46°59' W 124°17'78 5.1
2017-Oct-01 02:44N 48°10' W 125°03'83 2.2
2017-Sep-29 13:14N 46°55' W 124°11'2 7.3
2017-Sep-29 13:00N 46°55' W 124°13'3 5.3
2017-Sep-29 12:30N 46°57' W 124°16'3 6.2
2017-Sep-29 12:00N 46°60' W 124°18'73 7.1
2017-Sep-29 01:47N 48°06' W 125°02'5 1.6
2017-Sep-28 22:32N 48°09' W 125°10'0 4.7
2017-Sep-28 22:29N 48°08' W 125°09'65 5.1
2017-Sep-28 09:46N 47°10' W 124°27'2 7.9
2017-Sep-28 09:30N 47°08' W 124°25'4 8.0
2017-Sep-28 09:00N 47°05' W 124°23'4 8.2
2017-Sep-28 08:30N 47°01' W 124°20'4 8.0
2017-Sep-28 08:00N 46°58' W 124°17'4 7.4
2017-Sep-28 07:30N 46°55' W 124°13'5 8.6
2017-Sep-28 06:58N 46°55' W 124°07'1 0.1
2017-Sep-28 01:55N 46°54' W 124°06'  
Track history (hours):
 
Tides and Currents Weather Stations Pressure Air Temp Water Temp Dewpoint Dewpoint Depression Visibility Wind Speed Wind Dir Waves Ship Positions

Juno

Owner: All Alaskan Rondys, LLC, Seattle, WA. More information available from US FCC via Universal Licensing System and Coast Guard Vessel Documentation Center.

Last reported at 2017-Oct-07 23:56 UTC. Time now 2017-Nov-18 16:04 UTC.
Position N 46°54' W 124°06'.
Warning: this ship's position is 41 days out of date.

; draft 4 m.

Type: Fishing. MMSI: 366946960.

Date/timePositionNaut miles runAvg speedWind from/ knotsBaromVisibWave heightAir tempDewpointWater temp
2017-Oct-07 23:56N 46°54' W 124°06'0 0.0
2017-Oct-07 23:30N 46°54' W 124°06'0 0.1
2017-Oct-07 23:00N 46°54' W 124°06'0 0.1
2017-Oct-07 22:31N 46°54' W 124°06'0 0.0
2017-Oct-07 22:00N 46°54' W 124°06'0 0.0
2017-Oct-07 21:31N 46°54' W 124°06'0 0.0
2017-Oct-07 21:00N 46°54' W 124°06'0 0.1
2017-Oct-07 20:30N 46°54' W 124°06'0 0.0
2017-Oct-07 20:00N 46°54' W 124°06'0 0.0
2017-Oct-07 19:30N 46°54' W 124°06'0 0.1
2017-Oct-07 18:58N 46°54' W 124°06'0 0.0
2017-Oct-07 18:26N 46°54' W 124°06'0 0.0
2017-Oct-07 17:57N 46°54' W 124°06'0 0.0
2017-Oct-07 17:29N 46°54' W 124°06'5 4.6
2017-Oct-07 16:21N 46°55' W 124°14'2 5.7
2017-Oct-07 15:58N 46°57' W 124°16'3 7.0
2017-Oct-07 15:30N 46°60' W 124°18'4 7.3
2017-Oct-07 15:00N 47°03' W 124°20'4 7.2
2017-Oct-07 14:30N 47°06' W 124°22'4 7.2
2017-Oct-07 13:55N 47°10' W 124°24'80 6.9
2017-Oct-07 02:19N 48°23' W 125°12'1 0.7
2017-Oct-07 01:04N 48°24' W 125°12'0 1.2
2017-Oct-07 00:54N 48°24' W 125°12'1 1.1
2017-Oct-07 00:17N 48°24' W 125°13'0 0.6
2017-Oct-06 23:51N 48°24' W 125°14'1 3.9
2017-Oct-06 23:29N 48°25' W 125°12'2 3.5
2017-Oct-06 23:00N 48°26' W 125°10'1 1.2
2017-Oct-06 22:19N 48°27' W 125°09'1 1.7
2017-Oct-06 22:00N 48°26' W 125°09'2 3.8
2017-Oct-06 21:26N 48°25' W 125°12'2 3.4
2017-Oct-06 20:59N 48°26' W 125°10'2 2.9
2017-Oct-06 20:22N 48°24' W 125°12'2 3.7
2017-Oct-06 19:56N 48°23' W 125°13'1 1.9
2017-Oct-06 19:27N 48°22' W 125°14'1 1.0
2017-Oct-06 18:54N 48°22' W 125°15'1 3.8
2017-Oct-06 18:30N 48°23' W 125°13'2 3.0
2017-Oct-06 17:56N 48°23' W 125°10'0 0.8
2017-Oct-06 17:27N 48°23' W 125°10'0 0.4
2017-Oct-06 16:55N 48°23' W 125°10'1 2.7
2017-Oct-06 16:22N 48°21' W 125°09'15 3.8
2017-Oct-06 12:23N 48°07' W 125°02'4 7.1
2017-Oct-06 11:50N 48°04' W 124°59'2 7.2
2017-Oct-06 11:30N 48°02' W 124°58'4 7.4
2017-Oct-06 11:00N 47°58' W 124°56'4 7.3
2017-Oct-06 10:30N 47°55' W 124°53'4 7.2
2017-Oct-06 10:00N 47°51' W 124°52'4 7.4
2017-Oct-06 09:30N 47°48' W 124°49'4 7.6
2017-Oct-06 08:58N 47°44' W 124°47'3 7.4
2017-Oct-06 08:30N 47°41' W 124°45'4 7.1
2017-Oct-06 08:00N 47°38' W 124°42'4 7.3
2017-Oct-06 07:30N 47°35' W 124°40'4 7.2
2017-Oct-06 07:00N 47°31' W 124°38'4 7.3
2017-Oct-06 06:26N 47°28' W 124°36'3 6.9
2017-Oct-06 06:00N 47°25' W 124°34'4 7.1
2017-Oct-06 05:30N 47°22' W 124°32'4 7.2
2017-Oct-06 05:00N 47°18' W 124°30'4 7.5
2017-Oct-06 04:30N 47°15' W 124°27'4 7.8
2017-Oct-06 04:00N 47°11' W 124°25'4 7.7
2017-Oct-06 03:30N 47°08' W 124°23'4 7.5
2017-Oct-06 03:00N 47°04' W 124°21'4 7.2
2017-Oct-06 02:30N 47°01' W 124°19'3 7.0
2017-Oct-06 02:00N 46°58' W 124°17'3 7.0
2017-Oct-06 01:30N 46°55' W 124°14'5 9.1
2017-Oct-06 01:00N 46°55' W 124°07'1 1.6
2017-Oct-06 00:30N 46°54' W 124°06'0 0.0
2017-Oct-06 00:00N 46°54' W 124°06'0 0.1
2017-Oct-05 23:30N 46°54' W 124°06'0 0.1
2017-Oct-05 23:00N 46°54' W 124°06'0 0.0
2017-Oct-05 22:30N 46°54' W 124°06'0 0.0
2017-Oct-05 22:00N 46°54' W 124°06'0 0.0
2017-Oct-05 21:30N 46°54' W 124°06'0 0.0
2017-Oct-05 21:00N 46°54' W 124°06'0 0.0
2017-Oct-05 20:30N 46°54' W 124°06'0 0.0
2017-Oct-05 20:00N 46°54' W 124°06'0 0.0
2017-Oct-05 19:30N 46°54' W 124°06'0 0.0
2017-Oct-05 19:00N 46°54' W 124°06'0 0.0
2017-Oct-05 18:29N 46°54' W 124°06'0 0.0
2017-Oct-05 18:00N 46°54' W 124°06'0 0.0
2017-Oct-05 17:30N 46°54' W 124°06'0 0.0
2017-Oct-05 17:00N 46°54' W 124°06'0 0.0
2017-Oct-05 15:30N 46°54' W 124°06'0 0.0
2017-Oct-05 15:00N 46°54' W 124°06'0 0.0
2017-Oct-05 14:30N 46°54' W 124°06'0 0.0
2017-Oct-05 14:00N 46°54' W 124°06'0 0.0
2017-Oct-05 13:28N 46°54' W 124°06'0 0.0
2017-Oct-05 13:00N 46°54' W 124°06'0 0.0
2017-Oct-05 12:30N 46°54' W 124°06'0 0.0
2017-Oct-05 11:51N 46°54' W 124°06'0 0.0
2017-Oct-05 11:30N 46°54' W 124°06'0 0.0
2017-Oct-05 10:51N 46°54' W 124°06'0 0.0
2017-Oct-05 10:30N 46°54' W 124°06'0 0.0
2017-Oct-05 10:00N 46°54' W 124°06'0 0.0
2017-Oct-05 09:30N 46°54' W 124°06'0 0.0
2017-Oct-05 09:00N 46°54' W 124°06'0 0.0
2017-Oct-05 08:30N 46°54' W 124°06'0 0.0
2017-Oct-05 07:48N 46°54' W 124°06'0 0.0
2017-Oct-05 07:30N 46°54' W 124°06'0 0.0
2017-Oct-05 07:00N 46°54' W 124°06'0 0.0
2017-Oct-05 06:30N 46°54' W 124°06'0 0.0
2017-Oct-05 05:02N 46°54' W 124°06'0 0.0
2017-Oct-05 04:49N 46°54' W 124°06'0 0.0
2017-Oct-05 04:30N 46°54' W 124°06'0 0.0
2017-Oct-05 04:00N 46°54' W 124°06'0 0.0
2017-Oct-05 03:30N 46°54' W 124°06'0 0.0
2017-Oct-05 03:00N 46°54' W 124°06'0 0.0
2017-Oct-05 02:30N 46°54' W 124°06'0 0.0
2017-Oct-05 02:00N 46°54' W 124°06'0 0.0
2017-Oct-05 01:30N 46°54' W 124°06'0 0.0
2017-Oct-05 01:00N 46°54' W 124°06'0 0.0
2017-Oct-05 00:30N 46°54' W 124°06'0 0.0
2017-Oct-05 00:00N 46°54' W 124°06'0 0.0
2017-Oct-04 23:30N 46°54' W 124°06'0 0.0
2017-Oct-04 23:00N 46°54' W 124°06'0 0.1
2017-Oct-04 22:30N 46°54' W 124°06'0 0.0
2017-Oct-04 22:00N 46°54' W 124°06'0 0.0
2017-Oct-04 21:30N 46°54' W 124°06'0 0.0
2017-Oct-04 21:00N 46°54' W 124°06'0 0.0
2017-Oct-04 20:30N 46°54' W 124°06'0 0.0
2017-Oct-04 20:00N 46°54' W 124°06'0 0.0
2017-Oct-04 19:30N 46°54' W 124°06'0 0.0
2017-Oct-04 19:00N 46°54' W 124°06'0 0.0
2017-Oct-04 18:30N 46°54' W 124°06'0 0.0
2017-Oct-04 18:00N 46°54' W 124°06'0 0.0
2017-Oct-04 17:30N 46°54' W 124°06'0 0.0
2017-Oct-04 17:00N 46°54' W 124°06'0 0.1
2017-Oct-04 16:30N 46°54' W 124°06'0 0.1
2017-Oct-04 16:00N 46°54' W 124°06'3 5.5
2017-Oct-04 15:30N 46°55' W 124°10'3 6.5
2017-Oct-04 15:00N 46°56' W 124°15'4 7.5
2017-Oct-04 14:30N 46°59' W 124°18'4 7.8
2017-Oct-04 14:00N 47°03' W 124°20'4 7.9
2017-Oct-04 13:30N 47°06' W 124°22'4 7.9
2017-Oct-04 13:00N 47°10' W 124°24'4 7.8
2017-Oct-04 12:30N 47°14' W 124°27'4 7.9
2017-Oct-04 11:57N 47°18' W 124°30'3 7.6
2017-Oct-04 11:31N 47°21' W 124°32'32 1.5
2017-Oct-03 13:39N 47°50' W 124°52'38 8.2
2017-Oct-03 09:03N 47°16' W 124°29'1 7.9
2017-Oct-03 08:57N 47°15' W 124°28'4 7.8
2017-Oct-03 08:30N 47°12' W 124°26'4 7.9
2017-Oct-03 08:00N 47°08' W 124°24'4 7.7
2017-Oct-03 07:30N 47°05' W 124°21'4 7.6
2017-Oct-03 07:00N 47°01' W 124°19'4 7.3
2017-Oct-03 06:31N 46°58' W 124°17'3 6.7
2017-Oct-03 06:00N 46°55' W 124°14'3 6.9
2017-Oct-03 05:30N 46°55' W 124°09'2 0.2
2017-Oct-02 19:19N 46°54' W 124°06'0 0.0
2017-Oct-02 19:00N 46°54' W 124°06'0 0.0
2017-Oct-02 18:30N 46°54' W 124°06'0 0.0
2017-Oct-02 17:38N 46°54' W 124°06'0 0.0
2017-Oct-02 17:20N 46°54' W 124°06'0 0.0
2017-Oct-02 17:00N 46°54' W 124°06'0 0.0
2017-Oct-02 11:51N 46°54' W 124°06'0 0.0
2017-Oct-02 11:30N 46°54' W 124°06'0 0.0
2017-Oct-02 10:58N 46°54' W 124°06'1 0.1
2017-Oct-01 19:25N 46°55' W 124°08'1 1.9
2017-Oct-01 18:58N 46°55' W 124°09'3 7.2
2017-Oct-01 18:30N 46°55' W 124°14'4 7.9
2017-Oct-01 18:00N 46°59' W 124°17'78 5.1
2017-Oct-01 02:44N 48°10' W 125°03'83 2.2
2017-Sep-29 13:14N 46°55' W 124°11'2 7.3
2017-Sep-29 13:00N 46°55' W 124°13'3 5.3
2017-Sep-29 12:30N 46°57' W 124°16'3 6.2
2017-Sep-29 12:00N 46°60' W 124°18'73 7.1
2017-Sep-29 01:47N 48°06' W 125°02'5 1.6
2017-Sep-28 22:32N 48°09' W 125°10'0 4.7
2017-Sep-28 22:29N 48°08' W 125°09'65 5.1
2017-Sep-28 09:46N 47°10' W 124°27'2 7.9
2017-Sep-28 09:30N 47°08' W 124°25'4 8.0
2017-Sep-28 09:00N 47°05' W 124°23'4 8.2
2017-Sep-28 08:30N 47°01' W 124°20'4 8.0
2017-Sep-28 08:00N 46°58' W 124°17'4 7.4
2017-Sep-28 07:30N 46°55' W 124°13'5 8.6
2017-Sep-28 06:58N 46°55' W 124°07'1 0.1
2017-Sep-28 01:55N 46°54' W 124°06'  

Dump ship's entire track history